Wednesday, June 20, 2018, 5:15 PM EDT
Back to Local

KDDH, Bennington Morse State Airport

Location: Bennington, VT, United States Lat: 42.883
Local Time: 5:15 PM EDT (21:15 GMT) Lon: -73.25
Time Zone: US/Eastern Elev: 826 ft

Show me the last for .
Show Decoded

2018-06-20 16:54 METAR KDDH 202054Z AUTO VRB04KT 10SM CLR 23/14 A2983 RMK AO2 SLP097 T02330144
                 56013 =
2018-06-20 15:54 METAR KDDH 201954Z AUTO 24006KT 10SM CLR 22/13 A2984 RMK AO2 SLP101 T02220133 =
2018-06-20 14:54 METAR KDDH 201854Z AUTO VRB03KT 10SM CLR 22/13 A2985 RMK AO2 SLP105 T02170128 =
2018-06-20 13:54 METAR KDDH 201754Z AUTO VRB04KT 10SM CLR 22/12 A2986 RMK AO2 SLP111 T02170122
                 10222 20161 56013 =
2018-06-20 12:54 METAR KDDH 201654Z AUTO 24003KT 10SM CLR 21/13 A2987 RMK AO2 SLP112 T02110133 =
2018-06-20 11:54 METAR KDDH 201554Z AUTO 27005KT 10SM CLR 22/13 A2988 RMK AO2 SLP116 T02170128 =
2018-06-20 10:54 METAR KDDH 201454Z AUTO VRB04KT 10SM CLR 22/12 A2990 RMK AO2 SLP123 T02170117
                 58013 =
2018-06-20 09:54 METAR KDDH 201354Z AUTO 00000KT 10SM CLR 21/12 A2992 RMK AO2 SLP128 T02060122 =
2018-06-20 08:54 METAR KDDH 201254Z AUTO 00000KT 10SM CLR 19/12 A2993 RMK AO2 SLP133 T01890122 =
2018-06-20 07:54 METAR KDDH 201154Z AUTO 00000KT 10SM CLR 16/12 A2994 RMK AO2 SLP135 T01610122
                 10161 20083 50009 =
2018-06-20 06:54 METAR KDDH 201054Z AUTO 00000KT 10SM CLR 13/11 A2995 RMK AO2 SLP137 T01280106 =
2018-06-20 05:54 METAR KDDH 200954Z AUTO 00000KT 10SM CLR 09/08 A2992 RMK AO2 SLP130 T00890078 =
2018-06-20 05:34 METAR KDDH 200934Z AUTO 21003KT 10SM CLR 08/07 A2992 RMK AO2 T00830072 =
2018-06-20 05:25 METAR KDDH 200925Z AUTO 19003KT 2 1/2SM BR CLR 09/08 A2992 RMK AO2 T00890078 =
2018-06-20 04:54 METAR KDDH 200854Z AUTO 00000KT 8SM CLR 08/08 A2991 RMK AO2 SLP128 T00830078
                 55003 =
2018-06-20 03:54 METAR KDDH 200754Z AUTO 00000KT 9SM CLR 10/08 A2991 RMK AO2 SLP124 T01000083 =
2018-06-20 02:54 METAR KDDH 200654Z AUTO 00000KT 10SM CLR 11/09 A2992 RMK AO2 SLP129 T01060089 =
2018-06-20 01:54 METAR KDDH 200554Z AUTO 00000KT 10SM CLR 11/09 A2992 RMK AO2 SLP130 T01110094
                 10222 20106 50001 =
2018-06-20 00:54 METAR KDDH 200454Z AUTO 17003KT 10SM CLR 12/11 A2992 RMK AO2 SLP130 T01170106
                 402440117 =
2018-06-19 23:54 METAR KDDH 200354Z AUTO 00000KT 10SM CLR 13/12 A2992 RMK AO2 SLP129 T01330117 =
2018-06-19 22:54 METAR KDDH 200254Z AUTO 00000KT 10SM CLR 15/13 A2992 RMK AO2 SLP129 T01500128
                 53014 =
2018-06-19 21:54 METAR KDDH 200154Z AUTO 20003KT 10SM CLR 16/13 A2991 RMK AO2 SLP126 T01560128 =
2018-06-19 20:54 METAR KDDH 200054Z AUTO 13004KT 10SM CLR 16/13 A2989 RMK AO2 SLP118 T01610133 =
2018-06-19 19:54 METAR KDDH 192354Z AUTO 00000KT 10SM CLR 22/12 A2988 RMK AO2 SLP113 T02220122
                 10244 20222 53005 =
2018-06-19 18:54 METAR KDDH 192254Z AUTO VRB03KT 10SM CLR 24/13 A2988 RMK AO2 SLP112 T02390128 =
2018-06-19 17:54 METAR KDDH 192154Z AUTO VRB04KT 10SM CLR 24/12 A2986 RMK AO2 SLP107 T02390117 =

Support USWX by starting your Amazon purchase here.